sensor_id;sensor_type;location;lat;lon;timestamp;P1;durP1;ratioP1;P2;durP2;ratioP2
15624;SDS011;7912;51.376;6.126;2024-01-16T00:01:20;3.87;;;3.17;;
15624;SDS011;7912;51.376;6.126;2024-01-16T00:03:48;5.33;;;3.20;;
15624;SDS011;7912;51.376;6.126;2024-01-16T00:09:21;5.40;;;3.87;;
15624;SDS011;7912;51.376;6.126;2024-01-16T00:11:48;4.60;;;3.63;;
15624;SDS011;7912;51.376;6.126;2024-01-16T00:14:16;6.07;;;3.90;;
15624;SDS011;7912;51.376;6.126;2024-01-16T00:16:44;5.27;;;4.03;;
15624;SDS011;7912;51.376;6.126;2024-01-16T00:19:14;5.07;;;4.10;;
15624;SDS011;7912;51.376;6.126;2024-01-16T00:21:42;5.60;;;3.97;;
15624;SDS011;7912;51.376;6.126;2024-01-16T00:24:13;4.77;;;3.67;;
15624;SDS011;7912;51.376;6.126;2024-01-16T00:26:41;5.50;;;4.37;;
15624;SDS011;7912;51.376;6.126;2024-01-16T00:29:09;4.87;;;3.50;;
15624;SDS011;7912;51.376;6.126;2024-01-16T00:31:39;4.90;;;4.10;;
15624;SDS011;7912;51.376;6.126;2024-01-16T00:34:09;6.30;;;4.27;;
15624;SDS011;7912;51.376;6.126;2024-01-16T00:36:36;5.40;;;4.03;;
15624;SDS011;7912;51.376;6.126;2024-01-16T00:39:04;6.00;;;3.97;;
15624;SDS011;7912;51.376;6.126;2024-01-16T00:41:31;5.70;;;4.13;;
15624;SDS011;7912;51.376;6.126;2024-01-16T00:43:58;6.67;;;4.30;;
15624;SDS011;7912;51.376;6.126;2024-01-16T00:46:26;5.27;;;4.00;;
15624;SDS011;7912;51.376;6.126;2024-01-16T00:48:53;6.07;;;4.23;;
15624;SDS011;7912;51.376;6.126;2024-01-16T00:51:21;4.27;;;3.87;;
15624;SDS011;7912;51.376;6.126;2024-01-16T00:53:48;4.60;;;3.90;;
15624;SDS011;7912;51.376;6.126;2024-01-16T00:56:16;4.37;;;3.80;;
15624;SDS011;7912;51.376;6.126;2024-01-16T00:58:43;3.83;;;3.47;;
15624;SDS011;7912;51.376;6.126;2024-01-16T01:01:11;4.70;;;4.03;;
15624;SDS011;7912;51.376;6.126;2024-01-16T01:03:38;4.13;;;3.70;;
15624;SDS011;7912;51.376;6.126;2024-01-16T01:06:06;4.73;;;4.00;;
15624;SDS011;7912;51.376;6.126;2024-01-16T01:08:33;4.43;;;3.97;;
15624;SDS011;7912;51.376;6.126;2024-01-16T01:11:01;5.50;;;4.37;;
15624;SDS011;7912;51.376;6.126;2024-01-16T01:13:29;6.20;;;4.93;;
15624;SDS011;7912;51.376;6.126;2024-01-16T01:15:57;4.63;;;4.23;;
15624;SDS011;7912;51.376;6.126;2024-01-16T01:18:24;6.77;;;4.50;;
15624;SDS011;7912;51.376;6.126;2024-01-16T01:20:52;5.83;;;4.77;;
15624;SDS011;7912;51.376;6.126;2024-01-16T01:23:20;5.40;;;4.90;;
15624;SDS011;7912;51.376;6.126;2024-01-16T01:25:47;5.20;;;4.60;;
15624;SDS011;7912;51.376;6.126;2024-01-16T01:28:16;6.90;;;5.03;;
15624;SDS011;7912;51.376;6.126;2024-01-16T01:30:44;5.57;;;5.00;;
15624;SDS011;7912;51.376;6.126;2024-01-16T01:33:11;6.50;;;5.40;;
15624;SDS011;7912;51.376;6.126;2024-01-16T01:35:39;6.37;;;5.27;;
15624;SDS011;7912;51.376;6.126;2024-01-16T01:38:07;6.37;;;5.60;;
15624;SDS011;7912;51.376;6.126;2024-01-16T01:40:34;6.27;;;5.57;;
15624;SDS011;7912;51.376;6.126;2024-01-16T01:43:19;7.53;;;5.50;;
15624;SDS011;7912;51.376;6.126;2024-01-16T01:48:42;6.97;;;5.30;;
15624;SDS011;7912;51.376;6.126;2024-01-16T01:51:13;5.80;;;5.20;;
15624;SDS011;7912;51.376;6.126;2024-01-16T01:53:43;6.03;;;5.47;;
15624;SDS011;7912;51.376;6.126;2024-01-16T01:56:14;6.43;;;5.50;;
15624;SDS011;7912;51.376;6.126;2024-01-16T01:58:46;5.83;;;5.23;;
15624;SDS011;7912;51.376;6.126;2024-01-16T02:01:17;5.63;;;5.07;;
15624;SDS011;7912;51.376;6.126;2024-01-16T02:03:46;6.33;;;5.00;;
15624;SDS011;7912;51.376;6.126;2024-01-16T02:06:21;7.10;;;5.73;;
15624;SDS011;7912;51.376;6.126;2024-01-16T02:08:48;8.97;;;5.47;;
15624;SDS011;7912;51.376;6.126;2024-01-16T02:11:16;5.83;;;4.83;;
15624;SDS011;7912;51.376;6.126;2024-01-16T02:13:44;6.27;;;5.10;;
15624;SDS011;7912;51.376;6.126;2024-01-16T02:16:18;5.53;;;4.90;;
15624;SDS011;7912;51.376;6.126;2024-01-16T02:18:52;6.47;;;5.87;;
15624;SDS011;7912;51.376;6.126;2024-01-16T02:21:25;6.90;;;5.90;;
15624;SDS011;7912;51.376;6.126;2024-01-16T02:23:57;7.80;;;6.67;;
15624;SDS011;7912;51.376;6.126;2024-01-16T02:26:29;8.13;;;6.73;;
15624;SDS011;7912;51.376;6.126;2024-01-16T02:28:57;8.60;;;7.70;;
15624;SDS011;7912;51.376;6.126;2024-01-16T02:31:33;9.43;;;7.50;;
15624;SDS011;7912;51.376;6.126;2024-01-16T02:34:01;9.37;;;7.63;;
15624;SDS011;7912;51.376;6.126;2024-01-16T02:36:31;11.37;;;7.40;;
15624;SDS011;7912;51.376;6.126;2024-01-16T02:39:00;9.03;;;8.13;;
15624;SDS011;7912;51.376;6.126;2024-01-16T02:41:27;7.77;;;6.53;;
15624;SDS011;7912;51.376;6.126;2024-01-16T02:43:55;8.97;;;6.90;;
15624;SDS011;7912;51.376;6.126;2024-01-16T02:46:22;8.70;;;6.93;;
15624;SDS011;7912;51.376;6.126;2024-01-16T02:48:49;8.03;;;6.53;;
15624;SDS011;7912;51.376;6.126;2024-01-16T02:51:17;7.53;;;6.10;;
15624;SDS011;7912;51.376;6.126;2024-01-16T02:53:44;7.63;;;5.90;;
15624;SDS011;7912;51.376;6.126;2024-01-16T02:56:12;8.37;;;6.53;;
15624;SDS011;7912;51.376;6.126;2024-01-16T02:58:39;8.67;;;6.10;;
15624;SDS011;7912;51.376;6.126;2024-01-16T03:01:07;8.37;;;6.03;;
15624;SDS011;7912;51.376;6.126;2024-01-16T03:03:34;8.57;;;6.20;;
15624;SDS011;7912;51.376;6.126;2024-01-16T03:06:01;7.73;;;6.03;;
15624;SDS011;7912;51.376;6.126;2024-01-16T03:08:29;6.87;;;5.50;;
15624;SDS011;7912;51.376;6.126;2024-01-16T03:10:57;7.07;;;5.27;;
15624;SDS011;7912;51.376;6.126;2024-01-16T03:13:24;6.23;;;4.50;;
15624;SDS011;7912;51.376;6.126;2024-01-16T03:15:52;7.03;;;4.70;;
15624;SDS011;7912;51.376;6.126;2024-01-16T03:18:19;5.27;;;4.77;;
15624;SDS011;7912;51.376;6.126;2024-01-16T03:20:50;6.43;;;4.80;;
15624;SDS011;7912;51.376;6.126;2024-01-16T03:23:17;5.63;;;4.77;;
15624;SDS011;7912;51.376;6.126;2024-01-16T03:25:45;7.03;;;4.40;;
15624;SDS011;7912;51.376;6.126;2024-01-16T03:28:12;5.27;;;4.10;;
15624;SDS011;7912;51.376;6.126;2024-01-16T03:30:40;5.20;;;4.00;;
15624;SDS011;7912;51.376;6.126;2024-01-16T03:33:08;6.77;;;3.97;;
15624;SDS011;7912;51.376;6.126;2024-01-16T03:35:36;6.13;;;4.10;;
15624;SDS011;7912;51.376;6.126;2024-01-16T03:38:03;5.77;;;3.67;;
15624;SDS011;7912;51.376;6.126;2024-01-16T03:40:30;5.70;;;3.50;;
15624;SDS011;7912;51.376;6.126;2024-01-16T03:43:01;4.00;;;3.50;;
15624;SDS011;7912;51.376;6.126;2024-01-16T03:45:28;5.73;;;3.90;;
15624;SDS011;7912;51.376;6.126;2024-01-16T03:56:16;4.63;;;3.77;;
15624;SDS011;7912;51.376;6.126;2024-01-16T03:58:44;5.80;;;3.93;;
15624;SDS011;7912;51.376;6.126;2024-01-16T04:01:11;7.27;;;5.17;;
15624;SDS011;7912;51.376;6.126;2024-01-16T04:03:39;8.07;;;5.67;;
15624;SDS011;7912;51.376;6.126;2024-01-16T04:06:16;8.60;;;5.80;;
15624;SDS011;7912;51.376;6.126;2024-01-16T04:08:45;7.83;;;6.03;;
15624;SDS011;7912;51.376;6.126;2024-01-16T04:11:13;8.60;;;6.93;;
15624;SDS011;7912;51.376;6.126;2024-01-16T04:13:41;9.87;;;7.13;;
15624;SDS011;7912;51.376;6.126;2024-01-16T04:16:09;10.53;;;8.13;;
15624;SDS011;7912;51.376;6.126;2024-01-16T04:18:39;11.00;;;9.03;;
15624;SDS011;7912;51.376;6.126;2024-01-16T04:21:09;9.50;;;8.23;;
15624;SDS011;7912;51.376;6.126;2024-01-16T04:23:37;9.53;;;7.40;;
15624;SDS011;7912;51.376;6.126;2024-01-16T04:26:05;9.07;;;7.90;;
15624;SDS011;7912;51.376;6.126;2024-01-16T04:28:32;10.43;;;8.17;;
15624;SDS011;7912;51.376;6.126;2024-01-16T04:31:00;8.47;;;7.17;;
15624;SDS011;7912;51.376;6.126;2024-01-16T04:33:28;9.40;;;8.50;;
15624;SDS011;7912;51.376;6.126;2024-01-16T04:35:56;9.93;;;8.47;;
15624;SDS011;7912;51.376;6.126;2024-01-16T04:38:24;9.87;;;8.37;;
15624;SDS011;7912;51.376;6.126;2024-01-16T04:40:51;10.23;;;9.17;;
15624;SDS011;7912;51.376;6.126;2024-01-16T04:43:19;10.20;;;9.10;;
15624;SDS011;7912;51.376;6.126;2024-01-16T04:45:46;11.03;;;9.00;;
15624;SDS011;7912;51.376;6.126;2024-01-16T04:48:13;10.50;;;9.17;;
15624;SDS011;7912;51.376;6.126;2024-01-16T04:50:40;10.87;;;9.63;;
15624;SDS011;7912;51.376;6.126;2024-01-16T04:53:08;11.77;;;9.10;;
15624;SDS011;7912;51.376;6.126;2024-01-16T04:55:35;9.83;;;8.83;;
15624;SDS011;7912;51.376;6.126;2024-01-16T04:58:03;10.10;;;8.87;;
15624;SDS011;7912;51.376;6.126;2024-01-16T05:00:31;11.33;;;8.60;;
15624;SDS011;7912;51.376;6.126;2024-01-16T05:02:58;9.83;;;8.57;;
15624;SDS011;7912;51.376;6.126;2024-01-16T05:05:26;11.27;;;8.30;;
15624;SDS011;7912;51.376;6.126;2024-01-16T05:07:55;10.43;;;8.13;;
15624;SDS011;7912;51.376;6.126;2024-01-16T05:10:23;11.00;;;8.03;;
15624;SDS011;7912;51.376;6.126;2024-01-16T05:12:50;12.00;;;8.53;;
15624;SDS011;7912;51.376;6.126;2024-01-16T05:15:17;10.47;;;7.47;;
15624;SDS011;7912;51.376;6.126;2024-01-16T05:17:45;12.00;;;7.83;;
15624;SDS011;7912;51.376;6.126;2024-01-16T05:20:12;10.77;;;6.90;;
15624;SDS011;7912;51.376;6.126;2024-01-16T05:22:39;8.53;;;6.40;;
15624;SDS011;7912;51.376;6.126;2024-01-16T05:25:09;8.27;;;6.50;;
15624;SDS011;7912;51.376;6.126;2024-01-16T05:27:37;8.17;;;6.17;;
15624;SDS011;7912;51.376;6.126;2024-01-16T05:30:04;9.00;;;6.00;;
15624;SDS011;7912;51.376;6.126;2024-01-16T05:32:34;9.63;;;5.50;;
15624;SDS011;7912;51.376;6.126;2024-01-16T05:35:02;9.00;;;5.53;;
15624;SDS011;7912;51.376;6.126;2024-01-16T05:37:30;8.53;;;5.80;;
15624;SDS011;7912;51.376;6.126;2024-01-16T05:39:58;8.87;;;5.10;;
15624;SDS011;7912;51.376;6.126;2024-01-16T05:42:25;9.07;;;5.37;;
15624;SDS011;7912;51.376;6.126;2024-01-16T05:44:53;9.33;;;5.53;;
15624;SDS011;7912;51.376;6.126;2024-01-16T05:47:20;8.80;;;4.87;;
15624;SDS011;7912;51.376;6.126;2024-01-16T05:49:50;8.83;;;4.83;;
15624;SDS011;7912;51.376;6.126;2024-01-16T05:52:24;7.57;;;4.87;;
15624;SDS011;7912;51.376;6.126;2024-01-16T05:54:51;7.87;;;4.83;;
15624;SDS011;7912;51.376;6.126;2024-01-16T05:57:23;8.90;;;4.57;;
15624;SDS011;7912;51.376;6.126;2024-01-16T05:59:51;6.70;;;4.40;;
15624;SDS011;7912;51.376;6.126;2024-01-16T06:02:19;7.60;;;4.47;;
15624;SDS011;7912;51.376;6.126;2024-01-16T06:04:46;6.00;;;4.60;;
15624;SDS011;7912;51.376;6.126;2024-01-16T06:07:14;9.50;;;5.40;;
15624;SDS011;7912;51.376;6.126;2024-01-16T06:09:44;7.77;;;4.80;;
15624;SDS011;7912;51.376;6.126;2024-01-16T06:12:11;6.80;;;4.80;;
15624;SDS011;7912;51.376;6.126;2024-01-16T06:14:38;11.53;;;5.50;;
15624;SDS011;7912;51.376;6.126;2024-01-16T06:17:06;6.00;;;4.30;;
15624;SDS011;7912;51.376;6.126;2024-01-16T06:19:33;8.43;;;4.87;;
15624;SDS011;7912;51.376;6.126;2024-01-16T06:22:01;6.10;;;4.43;;
15624;SDS011;7912;51.376;6.126;2024-01-16T06:24:29;7.93;;;4.43;;
15624;SDS011;7912;51.376;6.126;2024-01-16T06:27:06;6.07;;;4.47;;
15624;SDS011;7912;51.376;6.126;2024-01-16T06:29:34;9.00;;;4.57;;
15624;SDS011;7912;51.376;6.126;2024-01-16T06:32:01;9.30;;;4.40;;
15624;SDS011;7912;51.376;6.126;2024-01-16T06:34:29;6.67;;;4.50;;
15624;SDS011;7912;51.376;6.126;2024-01-16T06:36:57;7.50;;;4.60;;
15624;SDS011;7912;51.376;6.126;2024-01-16T06:39:24;6.90;;;4.50;;
15624;SDS011;7912;51.376;6.126;2024-01-16T06:41:51;5.93;;;4.50;;
15624;SDS011;7912;51.376;6.126;2024-01-16T06:44:19;9.60;;;4.83;;
15624;SDS011;7912;51.376;6.126;2024-01-16T06:46:49;7.57;;;4.27;;
15624;SDS011;7912;51.376;6.126;2024-01-16T06:49:17;8.80;;;4.20;;
15624;SDS011;7912;51.376;6.126;2024-01-16T06:51:44;8.03;;;4.27;;
15624;SDS011;7912;51.376;6.126;2024-01-16T06:54:12;6.37;;;4.13;;
15624;SDS011;7912;51.376;6.126;2024-01-16T06:56:39;8.03;;;4.30;;
15624;SDS011;7912;51.376;6.126;2024-01-16T06:59:07;7.90;;;4.97;;
15624;SDS011;7912;51.376;6.126;2024-01-16T07:01:37;6.07;;;4.77;;
15624;SDS011;7912;51.376;6.126;2024-01-16T07:04:05;6.83;;;4.20;;
15624;SDS011;7912;51.376;6.126;2024-01-16T07:06:32;7.43;;;4.40;;
15624;SDS011;7912;51.376;6.126;2024-01-16T07:09:00;7.33;;;4.33;;
15624;SDS011;7912;51.376;6.126;2024-01-16T07:11:27;9.60;;;4.37;;
15624;SDS011;7912;51.376;6.126;2024-01-16T07:13:54;8.20;;;4.27;;
15624;SDS011;7912;51.376;6.126;2024-01-16T07:16:22;6.93;;;4.40;;
15624;SDS011;7912;51.376;6.126;2024-01-16T07:18:49;5.40;;;4.00;;
15624;SDS011;7912;51.376;6.126;2024-01-16T07:21:20;8.80;;;4.17;;
15624;SDS011;7912;51.376;6.126;2024-01-16T07:23:47;5.50;;;3.83;;
15624;SDS011;7912;51.376;6.126;2024-01-16T07:26:18;6.27;;;3.80;;
15624;SDS011;7912;51.376;6.126;2024-01-16T07:28:46;5.93;;;4.00;;
15624;SDS011;7912;51.376;6.126;2024-01-16T07:31:14;7.67;;;4.10;;
15624;SDS011;7912;51.376;6.126;2024-01-16T07:36:39;7.03;;;3.70;;
15624;SDS011;7912;51.376;6.126;2024-01-16T07:39:07;9.77;;;4.07;;
15624;SDS011;7912;51.376;6.126;2024-01-16T07:41:35;9.33;;;4.17;;
15624;SDS011;7912;51.376;6.126;2024-01-16T07:44:04;8.13;;;4.03;;
15624;SDS011;7912;51.376;6.126;2024-01-16T07:46:32;8.07;;;3.93;;
15624;SDS011;7912;51.376;6.126;2024-01-16T07:49:02;6.77;;;3.33;;
15624;SDS011;7912;51.376;6.126;2024-01-16T07:51:30;5.07;;;3.73;;
15624;SDS011;7912;51.376;6.126;2024-01-16T07:54:08;6.43;;;4.07;;
15624;SDS011;7912;51.376;6.126;2024-01-16T07:56:36;6.33;;;3.53;;
15624;SDS011;7912;51.376;6.126;2024-01-16T07:59:04;8.80;;;3.90;;
15624;SDS011;7912;51.376;6.126;2024-01-16T08:01:32;5.30;;;3.40;;
15624;SDS011;7912;51.376;6.126;2024-01-16T08:04:03;5.30;;;3.30;;
15624;SDS011;7912;51.376;6.126;2024-01-16T08:06:31;7.63;;;3.50;;
15624;SDS011;7912;51.376;6.126;2024-01-16T08:08:59;5.97;;;3.60;;
15624;SDS011;7912;51.376;6.126;2024-01-16T08:11:26;5.80;;;3.30;;
15624;SDS011;7912;51.376;6.126;2024-01-16T08:13:53;8.30;;;3.97;;
15624;SDS011;7912;51.376;6.126;2024-01-16T08:16:21;5.83;;;3.63;;
15624;SDS011;7912;51.376;6.126;2024-01-16T08:22:48;7.00;;;3.50;;
15624;SDS011;7912;51.376;6.126;2024-01-16T08:25:16;9.10;;;3.63;;
15624;SDS011;7912;51.376;6.126;2024-01-16T08:27:44;9.87;;;4.00;;
15624;SDS011;7912;51.376;6.126;2024-01-16T08:30:11;7.70;;;4.10;;
15624;SDS011;7912;51.376;6.126;2024-01-16T08:32:39;8.60;;;3.97;;
15624;SDS011;7912;51.376;6.126;2024-01-16T08:35:07;5.63;;;3.57;;
15624;SDS011;7912;51.376;6.126;2024-01-16T08:37:35;9.10;;;3.90;;
15624;SDS011;7912;51.376;6.126;2024-01-16T08:40:02;6.67;;;3.93;;
15624;SDS011;7912;51.376;6.126;2024-01-16T08:42:31;6.30;;;3.90;;
15624;SDS011;7912;51.376;6.126;2024-01-16T08:44:58;8.40;;;4.43;;
15624;SDS011;7912;51.376;6.126;2024-01-16T08:47:25;7.07;;;4.07;;
15624;SDS011;7912;51.376;6.126;2024-01-16T08:49:53;7.33;;;4.03;;
15624;SDS011;7912;51.376;6.126;2024-01-16T08:52:20;10.37;;;4.50;;
15624;SDS011;7912;51.376;6.126;2024-01-16T08:54:47;7.43;;;4.40;;
15624;SDS011;7912;51.376;6.126;2024-01-16T08:57:15;7.83;;;4.63;;
15624;SDS011;7912;51.376;6.126;2024-01-16T08:59:43;6.27;;;4.60;;
15624;SDS011;7912;51.376;6.126;2024-01-16T09:02:11;6.07;;;4.40;;
15624;SDS011;7912;51.376;6.126;2024-01-16T09:04:39;8.33;;;5.03;;
15624;SDS011;7912;51.376;6.126;2024-01-16T09:07:06;6.80;;;4.20;;
15624;SDS011;7912;51.376;6.126;2024-01-16T09:09:34;10.27;;;5.07;;
15624;SDS011;7912;51.376;6.126;2024-01-16T09:12:01;8.57;;;4.70;;
15624;SDS011;7912;51.376;6.126;2024-01-16T09:14:30;7.90;;;5.27;;
15624;SDS011;7912;51.376;6.126;2024-01-16T09:16:57;8.63;;;4.83;;
15624;SDS011;7912;51.376;6.126;2024-01-16T09:19:24;8.73;;;4.90;;
15624;SDS011;7912;51.376;6.126;2024-01-16T09:21:53;7.70;;;4.80;;
15624;SDS011;7912;51.376;6.126;2024-01-16T09:24:20;8.43;;;5.30;;
15624;SDS011;7912;51.376;6.126;2024-01-16T09:26:48;8.87;;;5.13;;
15624;SDS011;7912;51.376;6.126;2024-01-16T09:29:15;7.63;;;4.83;;
15624;SDS011;7912;51.376;6.126;2024-01-16T09:31:43;8.47;;;5.60;;
15624;SDS011;7912;51.376;6.126;2024-01-16T09:34:10;9.47;;;4.47;;
15624;SDS011;7912;51.376;6.126;2024-01-16T09:36:40;7.03;;;5.07;;
15624;SDS011;7912;51.376;6.126;2024-01-16T09:39:07;8.60;;;4.90;;
15624;SDS011;7912;51.376;6.126;2024-01-16T09:41:35;8.10;;;5.17;;
15624;SDS011;7912;51.376;6.126;2024-01-16T09:44:03;7.80;;;5.20;;
15624;SDS011;7912;51.376;6.126;2024-01-16T09:46:31;9.10;;;5.00;;
15624;SDS011;7912;51.376;6.126;2024-01-16T09:49:00;8.80;;;5.13;;
15624;SDS011;7912;51.376;6.126;2024-01-16T09:51:31;7.43;;;4.80;;
15624;SDS011;7912;51.376;6.126;2024-01-16T09:53:58;6.73;;;4.57;;
15624;SDS011;7912;51.376;6.126;2024-01-16T09:56:28;7.93;;;4.73;;
15624;SDS011;7912;51.376;6.126;2024-01-16T09:58:58;7.67;;;4.47;;
15624;SDS011;7912;51.376;6.126;2024-01-16T10:01:32;10.03;;;5.17;;
15624;SDS011;7912;51.376;6.126;2024-01-16T10:04:01;9.70;;;5.10;;
15624;SDS011;7912;51.376;6.126;2024-01-16T10:06:28;7.30;;;4.53;;
15624;SDS011;7912;51.376;6.126;2024-01-16T10:09:00;8.67;;;5.10;;
15624;SDS011;7912;51.376;6.126;2024-01-16T10:11:28;7.80;;;4.93;;
15624;SDS011;7912;51.376;6.126;2024-01-16T10:13:56;10.17;;;5.20;;
15624;SDS011;7912;51.376;6.126;2024-01-16T10:17:11;7.73;;;4.77;;
15624;SDS011;7912;51.376;6.126;2024-01-16T10:19:29;8.83;;;5.23;;
15624;SDS011;7912;51.376;6.126;2024-01-16T10:22:11;7.13;;;4.83;;
15624;SDS011;7912;51.376;6.126;2024-01-16T10:24:40;9.57;;;5.43;;
15624;SDS011;7912;51.376;6.126;2024-01-16T10:27:07;8.30;;;5.20;;
15624;SDS011;7912;51.376;6.126;2024-01-16T10:29:34;9.17;;;5.40;;
15624;SDS011;7912;51.376;6.126;2024-01-16T10:32:24;10.53;;;5.50;;
15624;SDS011;7912;51.376;6.126;2024-01-16T10:35:12;8.57;;;5.30;;
15624;SDS011;7912;51.376;6.126;2024-01-16T10:37:43;9.87;;;5.50;;
15624;SDS011;7912;51.376;6.126;2024-01-16T10:40:14;10.23;;;5.20;;
15624;SDS011;7912;51.376;6.126;2024-01-16T10:42:58;9.70;;;5.03;;
15624;SDS011;7912;51.376;6.126;2024-01-16T10:45:28;7.90;;;5.03;;
15624;SDS011;7912;51.376;6.126;2024-01-16T10:48:02;12.53;;;5.23;;
15624;SDS011;7912;51.376;6.126;2024-01-16T10:50:37;7.77;;;5.00;;
15624;SDS011;7912;51.376;6.126;2024-01-16T10:53:07;8.90;;;5.20;;
15624;SDS011;7912;51.376;6.126;2024-01-16T10:55:51;11.80;;;6.87;;
15624;SDS011;7912;51.376;6.126;2024-01-16T10:58:20;9.20;;;4.97;;
15624;SDS011;7912;51.376;6.126;2024-01-16T11:00:52;7.40;;;4.93;;
15624;SDS011;7912;51.376;6.126;2024-01-16T11:03:24;10.77;;;5.33;;
15624;SDS011;7912;51.376;6.126;2024-01-16T11:06:02;8.80;;;5.10;;
15624;SDS011;7912;51.376;6.126;2024-01-16T11:08:36;9.00;;;5.47;;
15624;SDS011;7912;51.376;6.126;2024-01-16T11:11:08;9.87;;;5.50;;
15624;SDS011;7912;51.376;6.126;2024-01-16T11:13:36;9.83;;;5.33;;
15624;SDS011;7912;51.376;6.126;2024-01-16T11:16:05;6.87;;;5.03;;
15624;SDS011;7912;51.376;6.126;2024-01-16T11:18:34;7.60;;;4.97;;
15624;SDS011;7912;51.376;6.126;2024-01-16T11:21:06;8.73;;;5.53;;
15624;SDS011;7912;51.376;6.126;2024-01-16T11:23:44;7.63;;;5.07;;
15624;SDS011;7912;51.376;6.126;2024-01-16T11:26:26;7.97;;;5.53;;
15624;SDS011;7912;51.376;6.126;2024-01-16T11:29:00;12.50;;;5.60;;
15624;SDS011;7912;51.376;6.126;2024-01-16T11:31:55;9.80;;;5.23;;
15624;SDS011;7912;51.376;6.126;2024-01-16T11:37:11;8.10;;;5.13;;
15624;SDS011;7912;51.376;6.126;2024-01-16T11:39:40;8.53;;;4.90;;
15624;SDS011;7912;51.376;6.126;2024-01-16T11:42:07;7.97;;;5.07;;
15624;SDS011;7912;51.376;6.126;2024-01-16T11:47:21;8.73;;;5.47;;
15624;SDS011;7912;51.376;6.126;2024-01-16T11:49:51;8.73;;;5.90;;
15624;SDS011;7912;51.376;6.126;2024-01-16T11:52:39;7.20;;;5.10;;
15624;SDS011;7912;51.376;6.126;2024-01-16T11:55:30;8.20;;;5.17;;
15624;SDS011;7912;51.376;6.126;2024-01-16T12:01:05;8.83;;;5.17;;
15624;SDS011;7912;51.376;6.126;2024-01-16T12:03:34;8.40;;;5.50;;
15624;SDS011;7912;51.376;6.126;2024-01-16T12:06:02;11.20;;;5.57;;
15624;SDS011;7912;51.376;6.126;2024-01-16T12:08:33;8.20;;;5.07;;
15624;SDS011;7912;51.376;6.126;2024-01-16T12:11:03;7.03;;;5.47;;
15624;SDS011;7912;51.376;6.126;2024-01-16T12:13:31;8.90;;;5.53;;
15624;SDS011;7912;51.376;6.126;2024-01-16T12:16:00;9.97;;;5.37;;
15624;SDS011;7912;51.376;6.126;2024-01-16T12:18:31;8.60;;;5.30;;
15624;SDS011;7912;51.376;6.126;2024-01-16T12:21:10;8.83;;;5.63;;
15624;SDS011;7912;51.376;6.126;2024-01-16T12:23:38;7.37;;;5.53;;
15624;SDS011;7912;51.376;6.126;2024-01-16T12:26:21;8.73;;;5.87;;
15624;SDS011;7912;51.376;6.126;2024-01-16T12:28:51;11.80;;;6.00;;
15624;SDS011;7912;51.376;6.126;2024-01-16T12:31:25;10.10;;;5.07;;
15624;SDS011;7912;51.376;6.126;2024-01-16T12:34:05;8.90;;;5.47;;
15624;SDS011;7912;51.376;6.126;2024-01-16T12:36:37;9.07;;;5.43;;
15624;SDS011;7912;51.376;6.126;2024-01-16T12:39:04;9.23;;;5.37;;
15624;SDS011;7912;51.376;6.126;2024-01-16T12:41:37;7.07;;;5.50;;
15624;SDS011;7912;51.376;6.126;2024-01-16T12:44:12;9.20;;;5.40;;
15624;SDS011;7912;51.376;6.126;2024-01-16T12:47:01;9.60;;;5.63;;
15624;SDS011;7912;51.376;6.126;2024-01-16T12:49:29;10.27;;;5.97;;
15624;SDS011;7912;51.376;6.126;2024-01-16T12:54:48;8.17;;;5.47;;
15624;SDS011;7912;51.376;6.126;2024-01-16T12:57:26;8.77;;;6.00;;
15624;SDS011;7912;51.376;6.126;2024-01-16T12:59:53;9.63;;;5.70;;
15624;SDS011;7912;51.376;6.126;2024-01-16T13:02:23;8.30;;;5.20;;
15624;SDS011;7912;51.376;6.126;2024-01-16T13:04:58;7.63;;;5.63;;
15624;SDS011;7912;51.376;6.126;2024-01-16T13:07:29;8.53;;;5.67;;
15624;SDS011;7912;51.376;6.126;2024-01-16T13:10:06;9.30;;;5.70;;
15624;SDS011;7912;51.376;6.126;2024-01-16T13:12:39;9.00;;;5.43;;
15624;SDS011;7912;51.376;6.126;2024-01-16T13:15:07;6.40;;;5.07;;
15624;SDS011;7912;51.376;6.126;2024-01-16T13:17:38;8.47;;;5.53;;
15624;SDS011;7912;51.376;6.126;2024-01-16T13:20:05;9.33;;;5.07;;
15624;SDS011;7912;51.376;6.126;2024-01-16T13:22:35;7.93;;;5.50;;
15624;SDS011;7912;51.376;6.126;2024-01-16T13:25:12;7.27;;;4.93;;
15624;SDS011;7912;51.376;6.126;2024-01-16T13:27:40;7.87;;;4.90;;
15624;SDS011;7912;51.376;6.126;2024-01-16T13:30:08;9.53;;;5.23;;
15624;SDS011;7912;51.376;6.126;2024-01-16T13:32:37;8.00;;;5.17;;
15624;SDS011;7912;51.376;6.126;2024-01-16T13:35:05;8.53;;;5.30;;
15624;SDS011;7912;51.376;6.126;2024-01-16T13:37:36;9.13;;;5.10;;
15624;SDS011;7912;51.376;6.126;2024-01-16T13:40:05;6.47;;;5.30;;
15624;SDS011;7912;51.376;6.126;2024-01-16T13:42:38;7.20;;;5.57;;
15624;SDS011;7912;51.376;6.126;2024-01-16T13:45:06;6.87;;;5.40;;
15624;SDS011;7912;51.376;6.126;2024-01-16T13:47:36;8.70;;;5.10;;
15624;SDS011;7912;51.376;6.126;2024-01-16T13:50:07;7.20;;;4.70;;
15624;SDS011;7912;51.376;6.126;2024-01-16T13:52:36;8.23;;;4.83;;
15624;SDS011;7912;51.376;6.126;2024-01-16T13:55:04;7.47;;;5.00;;
15624;SDS011;7912;51.376;6.126;2024-01-16T13:57:33;7.53;;;4.90;;
15624;SDS011;7912;51.376;6.126;2024-01-16T14:00:04;6.40;;;4.67;;
15624;SDS011;7912;51.376;6.126;2024-01-16T14:02:44;7.40;;;4.93;;
15624;SDS011;7912;51.376;6.126;2024-01-16T14:05:17;10.70;;;5.03;;
15624;SDS011;7912;51.376;6.126;2024-01-16T14:07:49;6.30;;;4.60;;
15624;SDS011;7912;51.376;6.126;2024-01-16T14:10:18;6.93;;;4.83;;
15624;SDS011;7912;51.376;6.126;2024-01-16T14:12:50;8.37;;;4.70;;
15624;SDS011;7912;51.376;6.126;2024-01-16T14:15:21;7.43;;;4.70;;
15624;SDS011;7912;51.376;6.126;2024-01-16T14:17:51;5.33;;;4.43;;
15624;SDS011;7912;51.376;6.126;2024-01-16T14:20:25;7.67;;;4.57;;
15624;SDS011;7912;51.376;6.126;2024-01-16T14:22:54;5.50;;;4.33;;
15624;SDS011;7912;51.376;6.126;2024-01-16T14:25:26;6.07;;;4.50;;
15624;SDS011;7912;51.376;6.126;2024-01-16T14:28:00;7.33;;;4.33;;
15624;SDS011;7912;51.376;6.126;2024-01-16T14:30:40;6.03;;;4.10;;
15624;SDS011;7912;51.376;6.126;2024-01-16T14:33:13;7.67;;;4.27;;
15624;SDS011;7912;51.376;6.126;2024-01-16T14:35:41;7.53;;;5.03;;
15624;SDS011;7912;51.376;6.126;2024-01-16T14:38:12;5.63;;;4.30;;
15624;SDS011;7912;51.376;6.126;2024-01-16T14:40:42;7.63;;;4.90;;
15624;SDS011;7912;51.376;6.126;2024-01-16T14:43:10;7.40;;;4.67;;
15624;SDS011;7912;51.376;6.126;2024-01-16T14:45:38;8.47;;;4.77;;
15624;SDS011;7912;51.376;6.126;2024-01-16T14:48:05;6.83;;;4.40;;
15624;SDS011;7912;51.376;6.126;2024-01-16T14:50:35;6.17;;;4.60;;
15624;SDS011;7912;51.376;6.126;2024-01-16T14:53:03;6.33;;;4.40;;
15624;SDS011;7912;51.376;6.126;2024-01-16T14:55:37;6.87;;;4.20;;
15624;SDS011;7912;51.376;6.126;2024-01-16T14:58:04;6.73;;;4.47;;
15624;SDS011;7912;51.376;6.126;2024-01-16T15:00:35;5.57;;;4.60;;
15624;SDS011;7912;51.376;6.126;2024-01-16T15:03:03;5.80;;;4.40;;
15624;SDS011;7912;51.376;6.126;2024-01-16T15:05:36;7.97;;;4.60;;
15624;SDS011;7912;51.376;6.126;2024-01-16T15:08:06;7.57;;;4.70;;
15624;SDS011;7912;51.376;6.126;2024-01-16T15:10:33;6.47;;;4.60;;
15624;SDS011;7912;51.376;6.126;2024-01-16T15:13:04;10.57;;;5.37;;
15624;SDS011;7912;51.376;6.126;2024-01-16T15:15:32;9.77;;;5.87;;
15624;SDS011;7912;51.376;6.126;2024-01-16T15:18:00;7.20;;;4.70;;
15624;SDS011;7912;51.376;6.126;2024-01-16T15:20:28;6.70;;;4.23;;
15624;SDS011;7912;51.376;6.126;2024-01-16T15:22:55;9.07;;;4.37;;
15624;SDS011;7912;51.376;6.126;2024-01-16T15:25:23;5.10;;;4.53;;
15624;SDS011;7912;51.376;6.126;2024-01-16T15:27:52;6.43;;;4.60;;
15624;SDS011;7912;51.376;6.126;2024-01-16T15:30:22;7.60;;;4.47;;
15624;SDS011;7912;51.376;6.126;2024-01-16T15:32:54;6.57;;;4.37;;
15624;SDS011;7912;51.376;6.126;2024-01-16T15:35:25;6.50;;;3.93;;
15624;SDS011;7912;51.376;6.126;2024-01-16T15:37:52;7.47;;;4.40;;
15624;SDS011;7912;51.376;6.126;2024-01-16T15:40:23;6.37;;;4.33;;
15624;SDS011;7912;51.376;6.126;2024-01-16T15:42:52;6.27;;;4.37;;
15624;SDS011;7912;51.376;6.126;2024-01-16T15:45:21;6.07;;;4.77;;
15624;SDS011;7912;51.376;6.126;2024-01-16T15:47:53;7.43;;;4.50;;